createdAt,value
2017-11-26T00:00:00.273Z,2.50
2017-11-26T00:02:27.766Z,2.50
2017-11-26T00:04:55.700Z,2.50
2017-11-26T00:07:23.195Z,2.50
2017-11-26T00:09:51.076Z,2.30
2017-11-26T00:12:18.591Z,2.30
2017-11-26T00:14:46.087Z,2.30
2017-11-26T00:17:14.019Z,2.30
2017-11-26T00:19:41.528Z,2.30
2017-11-26T00:22:09.037Z,2.40
2017-11-26T00:24:36.557Z,2.50
2017-11-26T00:27:04.041Z,2.50
2017-11-26T00:29:31.573Z,2.50
2017-11-26T00:31:59.100Z,2.40
2017-11-26T00:34:27.076Z,2.40
2017-11-26T00:36:54.966Z,2.50
2017-11-26T00:39:22.474Z,2.60
2017-11-26T00:41:50.005Z,2.70
2017-11-26T00:44:18.588Z,2.80
2017-11-26T00:46:46.086Z,2.90
2017-11-26T00:49:14.000Z,2.60
2017-11-26T00:51:41.527Z,2.60
2017-11-26T00:54:09.416Z,2.70
2017-11-26T00:56:36.917Z,2.70
2017-11-26T00:59:05.504Z,2.80
2017-11-26T01:01:32.989Z,2.80
2017-11-26T01:04:00.899Z,2.50
2017-11-26T01:06:28.410Z,2.50
2017-11-26T01:08:56.373Z,2.40
2017-11-26T01:11:23.886Z,2.40
2017-11-26T01:13:51.395Z,2.40
2017-11-26T01:16:19.298Z,2.40
2017-11-26T01:18:46.855Z,2.40
2017-11-26T01:21:14.364Z,2.40
2017-11-26T01:23:41.852Z,2.30
2017-11-26T01:26:09.332Z,2.30
2017-11-26T01:28:36.825Z,2.30
2017-11-26T01:31:04.301Z,2.30
2017-11-26T01:33:31.793Z,2.30
2017-11-26T01:35:59.281Z,2.20
2017-11-26T01:38:26.800Z,2.10
2017-11-26T01:40:54.306Z,2.10
2017-11-26T01:43:21.784Z,2.20
2017-11-26T01:45:49.276Z,2.10
2017-11-26T01:48:16.799Z,2.10
2017-11-26T01:50:44.287Z,2.00
2017-11-26T01:53:11.788Z,2.10
2017-11-26T01:55:39.265Z,2.00
2017-11-26T01:58:06.763Z,2.00
2017-11-26T02:00:34.649Z,1.80
2017-11-26T02:03:02.160Z,1.80
2017-11-26T02:05:29.645Z,1.90
2017-11-26T02:07:57.151Z,1.90
2017-11-26T02:10:25.579Z,2.00
2017-11-26T02:12:53.473Z,2.20
2017-11-26T02:15:20.958Z,2.20
2017-11-26T02:17:48.456Z,2.20
2017-11-26T02:20:16.334Z,2.30
2017-11-26T02:22:43.845Z,2.30
2017-11-26T02:25:13.311Z,2.30
2017-11-26T02:27:40.796Z,2.50
2017-11-26T02:30:08.421Z,2.50
2017-11-26T02:32:47.784Z,2.50
2017-11-26T02:35:27.184Z,2.50
2017-11-26T02:37:55.077Z,2.50
2017-11-26T02:40:22.572Z,2.50
2017-11-26T02:42:50.067Z,2.50
2017-11-26T02:45:18.408Z,2.50
2017-11-26T02:47:45.909Z,2.50
2017-11-26T02:50:13.409Z,2.50
2017-11-26T02:52:40.931Z,2.60
2017-11-26T02:55:08.414Z,2.60
2017-11-26T02:57:35.898Z,2.50
2017-11-26T03:00:03.400Z,2.50
2017-11-26T03:02:30.908Z,2.50
2017-11-26T03:04:58.389Z,2.50
2017-11-26T03:07:25.892Z,2.40
2017-11-26T03:09:53.383Z,2.40
2017-11-26T03:12:20.881Z,2.50
2017-11-26T03:14:48.768Z,2.40
2017-11-26T03:17:16.268Z,2.50
2017-11-26T03:19:43.751Z,2.40
2017-11-26T03:22:11.697Z,2.50
2017-11-26T03:24:39.175Z,2.50
2017-11-26T03:27:07.058Z,2.50
2017-11-26T03:29:34.969Z,2.50
2017-11-26T03:32:02.473Z,2.50
2017-11-26T03:34:30.366Z,2.60
2017-11-26T03:36:57.876Z,2.60
2017-11-26T03:39:25.371Z,2.60
2017-11-26T03:41:53.294Z,2.60
2017-11-26T03:44:20.776Z,2.60
2017-11-26T03:46:48.674Z,2.60
2017-11-26T03:49:16.169Z,2.60
2017-11-26T03:51:43.680Z,2.60
2017-11-26T03:54:11.189Z,2.70
2017-11-26T03:56:38.727Z,2.70
2017-11-26T03:59:06.217Z,2.70
2017-11-26T04:01:35.678Z,2.70
2017-11-26T04:04:03.176Z,2.60
2017-11-26T04:06:30.661Z,2.60
2017-11-26T04:08:58.551Z,2.40
2017-11-26T04:11:26.106Z,2.40
2017-11-26T04:13:53.627Z,2.40
2017-11-26T04:16:23.098Z,2.40
2017-11-26T04:18:50.600Z,2.30
2017-11-26T04:21:18.088Z,2.30
2017-11-26T04:23:45.585Z,2.30
2017-11-26T04:26:13.077Z,2.30
2017-11-26T04:28:40.978Z,2.30
2017-11-26T04:31:08.450Z,2.30
2017-11-26T04:33:35.961Z,2.20
2017-11-26T04:36:03.856Z,2.30
2017-11-26T04:38:31.369Z,2.30
2017-11-26T04:40:58.864Z,2.40
2017-11-26T04:43:26.384Z,2.30
2017-11-26T04:45:55.823Z,2.40
2017-11-26T04:48:23.336Z,2.40
2017-11-26T04:50:50.823Z,2.40
2017-11-26T04:53:18.324Z,2.40
2017-11-26T04:55:45.823Z,2.50
2017-11-26T04:58:13.321Z,2.30
2017-11-26T05:00:40.820Z,2.50
2017-11-26T05:03:08.342Z,2.40
2017-11-26T05:05:35.864Z,2.40
2017-11-26T05:08:03.336Z,2.30
2017-11-26T05:10:31.207Z,2.50
2017-11-26T05:12:58.711Z,2.50
2017-11-26T05:15:26.207Z,2.40
2017-11-26T05:17:55.653Z,2.50
2017-11-26T05:20:23.174Z,2.40
2017-11-26T05:22:51.137Z,2.50
2017-11-26T05:25:18.614Z,2.50
2017-11-26T05:27:46.487Z,2.40
2017-11-26T05:30:13.985Z,2.40
2017-11-26T05:32:41.479Z,2.40
2017-11-26T05:35:09.415Z,2.40
2017-11-26T05:37:36.925Z,2.40
2017-11-26T05:40:05.411Z,2.50
2017-11-26T05:42:32.917Z,2.60
2017-11-26T05:45:00.392Z,2.50
2017-11-26T05:47:27.894Z,2.50
2017-11-26T05:49:55.396Z,2.50
2017-11-26T05:52:24.849Z,2.40
2017-11-26T05:54:52.323Z,2.40
2017-11-26T05:57:19.799Z,2.50
2017-11-26T05:59:47.314Z,2.60
2017-11-26T06:02:14.819Z,2.60
2017-11-26T06:04:42.346Z,2.50
2017-11-26T06:07:09.849Z,2.50
2017-11-26T06:09:37.336Z,2.50
2017-11-26T06:12:05.259Z,2.40
2017-11-26T06:14:32.861Z,2.40
2017-11-26T06:17:00.755Z,2.30
2017-11-26T06:19:28.254Z,2.30
2017-11-26T06:21:55.751Z,2.30
2017-11-26T06:24:23.672Z,2.30
2017-11-26T06:29:25.526Z,2.30
2017-11-26T06:31:53.035Z,2.40
2017-11-26T06:34:20.515Z,2.30
2017-11-26T06:36:48.110Z,2.30
2017-11-26T06:39:15.648Z,2.30
2017-11-26T06:41:43.147Z,2.30
2017-11-26T06:44:10.628Z,2.50
2017-11-26T06:46:38.116Z,2.50
2017-11-26T06:49:05.600Z,2.40
2017-11-26T06:51:33.099Z,2.40
2017-11-26T06:54:00.578Z,2.40
2017-11-26T06:56:28.495Z,2.40
2017-11-26T06:58:55.970Z,2.40
2017-11-26T07:01:23.467Z,2.40
2017-11-26T07:03:51.345Z,2.30
2017-11-26T07:06:19.252Z,2.30
2017-11-26T07:08:46.723Z,2.30
2017-11-26T07:11:14.223Z,2.30
2017-11-26T07:13:42.094Z,2.30
2017-11-26T07:16:09.600Z,2.30
2017-11-26T07:18:37.085Z,2.40
2017-11-26T07:21:04.973Z,2.40
2017-11-26T07:23:32.453Z,2.40
2017-11-26T07:25:59.960Z,2.40
2017-11-26T07:28:27.847Z,2.40
2017-11-26T07:30:56.308Z,2.40
2017-11-26T07:33:23.796Z,2.40
2017-11-26T07:35:51.297Z,2.30
2017-11-26T07:38:18.812Z,2.40
2017-11-26T07:40:46.381Z,2.40
2017-11-26T07:43:15.820Z,2.50
2017-11-26T07:45:43.358Z,2.40
2017-11-26T07:48:10.835Z,2.50
2017-11-26T07:50:38.327Z,2.50
2017-11-26T07:53:06.212Z,2.50
2017-11-26T07:55:33.749Z,2.50
2017-11-26T07:58:01.636Z,2.60
2017-11-26T08:00:29.137Z,2.60
2017-11-26T08:02:56.640Z,2.60
2017-11-26T08:05:24.524Z,2.70
2017-11-26T08:07:52.045Z,2.70
2017-11-26T08:10:20.481Z,2.80
2017-11-26T08:12:48.373Z,3.10
2017-11-26T08:15:15.853Z,3.10
2017-11-26T08:17:43.344Z,3.20
2017-11-26T08:20:10.931Z,3.30
2017-11-26T08:22:38.443Z,3.30
2017-11-26T08:25:06.328Z,3.40
2017-11-26T08:27:33.854Z,3.40
2017-11-26T08:30:01.364Z,3.40
2017-11-26T08:32:28.836Z,3.40
2017-11-26T08:34:57.268Z,3.60
2017-11-26T08:37:24.792Z,3.60
2017-11-26T08:39:52.303Z,3.60
2017-11-26T08:42:19.780Z,3.60
2017-11-26T08:44:47.344Z,3.60
2017-11-26T08:47:15.801Z,3.80
2017-11-26T08:49:43.275Z,3.90
2017-11-26T08:52:10.796Z,3.90
2017-11-26T08:54:39.671Z,3.90
2017-11-26T08:57:07.149Z,3.90
2017-11-26T08:59:35.085Z,4.10
2017-11-26T09:02:02.589Z,4.10
2017-11-26T09:04:30.124Z,4.10
2017-11-26T09:07:15.420Z,4.00
2017-11-26T09:09:42.929Z,4.10
2017-11-26T09:12:10.446Z,4.00
2017-11-26T09:14:37.983Z,4.20
2017-11-26T09:17:05.867Z,4.00
2017-11-26T09:19:33.372Z,4.00
2017-11-26T09:22:00.868Z,4.00
2017-11-26T09:24:28.932Z,4.00
2017-11-26T09:26:56.849Z,4.00
2017-11-26T09:29:24.564Z,4.00
2017-11-26T09:31:52.476Z,4.10
2017-11-26T09:34:20.955Z,4.10
2017-11-26T09:36:48.452Z,4.20
2017-11-26T09:39:16.056Z,4.30
2017-11-26T09:41:43.583Z,4.50
2017-11-26T09:44:11.131Z,4.40
2017-11-26T09:46:38.637Z,4.50
2017-11-26T09:49:06.140Z,4.50
2017-11-26T09:51:33.623Z,4.50
2017-11-26T09:54:01.502Z,4.40
2017-11-26T09:56:29.439Z,4.50
2017-11-26T09:58:56.916Z,4.50
2017-11-26T10:01:26.742Z,4.50
2017-11-26T10:03:54.628Z,4.50
2017-11-26T10:06:22.893Z,4.50
2017-11-26T10:08:50.495Z,4.60
2017-11-26T10:11:17.994Z,4.60
2017-11-26T10:13:45.862Z,4.70
2017-11-26T10:16:13.768Z,4.60
2017-11-26T10:18:41.265Z,4.60
2017-11-26T10:21:08.775Z,4.60
2017-11-26T10:23:38.024Z,4.60
2017-11-26T10:26:05.611Z,4.60
2017-11-26T10:28:33.130Z,4.70
2017-11-26T10:31:00.633Z,4.60
2017-11-26T10:33:28.518Z,4.70
2017-11-26T10:35:56.008Z,4.70
2017-11-26T10:38:23.527Z,4.80
2017-11-26T10:40:51.026Z,4.70
2017-11-26T10:43:18.533Z,4.80
2017-11-26T10:45:46.032Z,4.80
2017-11-26T10:48:13.555Z,4.90
2017-11-26T10:50:41.037Z,4.90
2017-11-26T10:53:08.525Z,4.80
2017-11-26T10:55:36.490Z,4.70
2017-11-26T10:58:05.059Z,4.70
2017-11-26T11:00:34.493Z,4.70
2017-11-26T11:03:01.980Z,4.80
2017-11-26T11:05:29.492Z,4.80
2017-11-26T11:07:57.055Z,4.90
2017-11-26T11:10:24.538Z,5.00
2017-11-26T11:12:52.433Z,5.00
2017-11-26T11:15:19.913Z,5.00
2017-11-26T11:17:47.420Z,4.90
2017-11-26T11:20:15.334Z,4.80
2017-11-26T11:22:42.828Z,4.80
2017-11-26T11:25:10.369Z,4.80
2017-11-26T11:27:39.093Z,4.80
2017-11-26T11:30:06.972Z,4.80
2017-11-26T11:32:34.456Z,4.80
2017-11-26T11:35:01.952Z,4.90
2017-11-26T11:37:30.381Z,4.90
2017-11-26T11:39:57.890Z,4.90
2017-11-26T11:42:25.387Z,4.90
2017-11-26T11:44:52.936Z,4.90
2017-11-26T11:47:20.830Z,5.00
2017-11-26T11:49:48.328Z,5.00
2017-11-26T11:52:15.824Z,5.00
2017-11-26T11:54:43.713Z,5.00
2017-11-26T11:57:11.190Z,5.00
2017-11-26T11:59:39.701Z,5.00
2017-11-26T12:02:07.226Z,5.10
2017-11-26T12:04:34.711Z,5.10
2017-11-26T12:07:06.182Z,5.10
2017-11-26T12:09:33.724Z,5.10
2017-11-26T12:12:01.224Z,5.20
2017-11-26T12:14:30.356Z,5.20
2017-11-26T12:16:57.828Z,5.10
2017-11-26T12:19:25.329Z,5.10
2017-11-26T12:21:54.271Z,5.10
2017-11-26T12:24:22.696Z,5.10
2017-11-26T12:26:50.563Z,5.20
2017-11-26T12:29:19.354Z,5.30
2017-11-26T12:31:47.249Z,5.40
2017-11-26T12:34:14.788Z,5.40
2017-11-26T12:36:42.264Z,5.30
2017-11-26T12:39:11.690Z,5.30
2017-11-26T12:41:39.180Z,5.40
2017-11-26T12:44:06.708Z,5.40
2017-11-26T12:46:34.192Z,5.50
2017-11-26T12:49:01.704Z,5.50
2017-11-26T12:51:29.232Z,5.40
2017-11-26T12:53:57.151Z,5.30
2017-11-26T12:56:24.665Z,5.30
2017-11-26T12:58:52.168Z,5.20
2017-11-26T13:01:19.659Z,5.10
2017-11-26T13:03:47.161Z,5.10
2017-11-26T13:06:14.675Z,5.20
2017-11-26T13:08:42.161Z,5.20
2017-11-26T13:11:09.686Z,5.10
2017-11-26T13:13:37.189Z,5.20
2017-11-26T13:16:04.683Z,5.20
2017-11-26T13:18:32.181Z,5.30
2017-11-26T13:21:00.061Z,5.30
2017-11-26T13:23:27.573Z,5.30
2017-11-26T13:25:55.084Z,5.40
2017-11-26T13:28:22.577Z,5.30
2017-11-26T13:30:50.093Z,5.40
2017-11-26T13:33:17.577Z,5.30
2017-11-26T13:35:45.069Z,5.10
2017-11-26T13:38:12.545Z,5.20
2017-11-26T13:40:40.452Z,5.20
2017-11-26T13:43:07.928Z,5.10
2017-11-26T13:45:35.408Z,5.10
2017-11-26T13:48:02.912Z,5.20
2017-11-26T13:50:30.392Z,5.30
2017-11-26T13:52:59.881Z,5.20
2017-11-26T13:55:27.357Z,5.10
2017-11-26T13:57:54.876Z,5.20
2017-11-26T14:00:22.759Z,5.10
2017-11-26T14:02:50.256Z,5.10
2017-11-26T14:05:17.727Z,5.10
2017-11-26T14:07:45.223Z,5.10
2017-11-26T14:10:12.705Z,5.20
2017-11-26T14:12:40.200Z,5.20
2017-11-26T14:15:07.706Z,5.20
2017-11-26T14:17:38.733Z,5.20
2017-11-26T14:20:06.599Z,5.10
2017-11-26T14:22:34.516Z,5.10
2017-11-26T14:25:02.005Z,5.10
2017-11-26T14:27:29.496Z,5.10
2017-11-26T14:29:56.975Z,5.10
2017-11-26T14:32:24.480Z,5.10
2017-11-26T14:34:51.950Z,5.10
2017-11-26T14:37:19.831Z,5.20
2017-11-26T14:39:47.308Z,5.20
2017-11-26T14:42:14.809Z,5.20
2017-11-26T14:44:42.292Z,5.20
2017-11-26T14:47:10.181Z,5.10
2017-11-26T14:49:37.665Z,5.10
2017-11-26T14:52:06.093Z,5.10
2017-11-26T14:54:33.979Z,5.10
2017-11-26T14:57:01.504Z,5.10
2017-11-26T14:59:28.973Z,5.10
2017-11-26T15:01:56.852Z,5.00
2017-11-26T15:04:24.736Z,4.90
2017-11-26T15:06:53.153Z,4.90
2017-11-26T15:09:20.651Z,4.80
2017-11-26T15:11:48.517Z,4.70
2017-11-26T15:14:16.424Z,4.70
2017-11-26T15:16:43.920Z,4.70
2017-11-26T15:19:11.423Z,4.80
2017-11-26T15:21:38.928Z,4.70
2017-11-26T15:24:06.465Z,4.70
2017-11-26T15:26:33.975Z,4.80
2017-11-26T15:29:02.779Z,4.90
2017-11-26T15:31:30.257Z,4.90
2017-11-26T15:33:57.756Z,4.80
2017-11-26T15:36:26.214Z,4.70
2017-11-26T15:38:53.724Z,4.60
2017-11-26T15:41:21.611Z,4.60
2017-11-26T15:43:49.137Z,4.60
2017-11-26T15:46:16.612Z,4.60
2017-11-26T15:48:44.484Z,4.60
2017-11-26T15:51:11.981Z,4.60
2017-11-26T15:53:39.469Z,4.50
2017-11-26T15:56:06.968Z,4.50
2017-11-26T15:58:34.443Z,4.50
2017-11-26T16:01:01.940Z,4.50
2017-11-26T16:03:29.417Z,4.50
2017-11-26T16:05:57.284Z,4.40
2017-11-26T16:08:25.181Z,4.40
2017-11-26T16:10:52.688Z,4.40
2017-11-26T16:13:20.176Z,4.40
2017-11-26T16:15:49.631Z,4.40
2017-11-26T16:18:17.135Z,4.40
2017-11-26T16:20:44.649Z,4.40
2017-11-26T16:23:12.137Z,4.40
2017-11-26T16:25:40.024Z,4.40
2017-11-26T16:28:07.511Z,4.40
2017-11-26T16:30:35.963Z,4.40
2017-11-26T16:33:03.450Z,4.40
2017-11-26T16:35:30.946Z,4.40
2017-11-26T16:37:58.429Z,4.40
2017-11-26T16:40:26.012Z,4.40
2017-11-26T16:42:53.492Z,4.40
2017-11-26T16:45:20.988Z,4.40
2017-11-26T16:47:48.895Z,4.40
2017-11-26T16:53:17.444Z,4.30
2017-11-26T17:46:07.770Z,4.00
2017-11-26T17:48:35.253Z,4.10
2017-11-26T17:51:02.901Z,3.90
2017-11-26T17:53:30.805Z,3.90
2017-11-26T17:55:58.325Z,3.90
2017-11-26T17:58:28.286Z,3.90
2017-11-26T18:00:55.774Z,3.90
2017-11-26T18:03:23.288Z,3.90
2017-11-26T18:05:50.784Z,3.90
2017-11-26T18:08:18.570Z,3.90
2017-11-26T18:10:46.481Z,4.00
2017-11-26T18:13:13.964Z,4.00
2017-11-26T18:15:41.484Z,4.00
2017-11-26T18:18:09.004Z,4.00
2017-11-26T18:20:36.540Z,4.10
2017-11-26T18:23:04.922Z,4.10
2017-11-26T18:25:32.429Z,4.00
2017-11-26T18:28:00.310Z,3.80
2017-11-26T18:30:27.812Z,3.80
2017-11-26T18:32:55.286Z,3.80
2017-11-26T18:35:22.766Z,3.70
2017-11-26T18:37:50.649Z,3.60
2017-11-26T18:40:18.850Z,3.50
2017-11-26T18:42:46.363Z,3.50
2017-11-26T18:45:14.250Z,3.70
2017-11-26T18:47:41.774Z,3.70
2017-11-26T18:50:10.201Z,3.60
2017-11-26T18:52:37.699Z,3.60
2017-11-26T18:55:05.188Z,3.80
2017-11-26T18:57:33.098Z,3.80
2017-11-26T19:00:02.469Z,3.80
2017-11-26T19:02:31.293Z,3.70
2017-11-26T19:04:58.802Z,3.70
2017-11-26T19:07:26.711Z,3.70
2017-11-26T19:09:54.208Z,3.70
2017-11-26T19:12:21.704Z,3.80
2017-11-26T19:14:50.420Z,3.80
2017-11-26T19:17:19.364Z,3.80
2017-11-26T19:19:47.280Z,3.90
2017-11-26T19:22:16.984Z,3.90
2017-11-26T19:24:45.683Z,3.90
2017-11-26T19:27:13.881Z,3.90
2017-11-26T19:29:41.368Z,3.90
2017-11-26T19:32:10.151Z,3.80
2017-11-26T19:34:38.075Z,3.90
2017-11-26T19:37:07.405Z,3.90
2017-11-26T19:39:35.343Z,4.00
2017-11-26T19:42:02.882Z,4.00
2017-11-26T19:44:30.371Z,4.00
2017-11-26T19:46:58.200Z,4.00
2017-11-26T19:49:25.700Z,4.00
2017-11-26T19:51:53.202Z,4.10
2017-11-26T19:54:21.561Z,4.00
2017-11-26T19:56:52.289Z,4.10
2017-11-26T19:59:19.955Z,4.10
2017-11-26T20:01:47.831Z,4.00
2017-11-26T20:04:15.758Z,4.00
2017-11-26T20:06:43.553Z,4.00
2017-11-26T20:09:11.082Z,4.00
2017-11-26T20:11:38.574Z,4.10
2017-11-26T20:14:06.916Z,4.10
2017-11-26T20:16:34.456Z,4.10
2017-11-26T20:19:01.990Z,4.10
2017-11-26T20:21:29.533Z,4.00
2017-11-26T20:23:57.426Z,4.10
2017-11-26T20:26:24.900Z,4.10
2017-11-26T20:28:52.409Z,4.00
2017-11-26T20:31:20.291Z,4.00
2017-11-26T20:33:48.181Z,4.10
2017-11-26T20:36:15.668Z,4.10
2017-11-26T20:38:43.173Z,4.10
2017-11-26T20:41:11.053Z,4.00
2017-11-26T20:43:38.960Z,4.00
2017-11-26T20:46:06.449Z,4.00
2017-11-26T20:48:34.372Z,4.00
2017-11-26T20:51:01.858Z,4.00
2017-11-26T20:53:29.372Z,4.00
2017-11-26T20:55:56.891Z,4.00
2017-11-26T20:58:24.408Z,4.10
2017-11-26T21:00:51.900Z,4.10
2017-11-26T21:03:21.373Z,4.10
2017-11-26T21:05:48.871Z,4.00
2017-11-26T21:08:23.505Z,4.00
2017-11-26T21:10:53.252Z,4.00
2017-11-26T21:13:24.273Z,4.00
2017-11-26T21:15:51.752Z,4.00
2017-11-26T21:18:20.172Z,4.00
2017-11-26T21:20:48.536Z,4.00
2017-11-26T21:23:16.961Z,4.00
2017-11-26T21:25:46.220Z,4.00
2017-11-26T21:28:14.928Z,4.00
2017-11-26T21:30:43.494Z,4.00
2017-11-26T21:33:10.990Z,4.00
2017-11-26T21:35:38.482Z,4.00
2017-11-26T21:38:05.992Z,4.00
2017-11-26T21:40:33.881Z,4.10
2017-11-26T21:43:01.403Z,4.10
2017-11-26T21:45:28.921Z,4.00
2017-11-26T21:47:56.436Z,4.00
2017-11-26T21:50:24.373Z,3.90
2017-11-26T21:52:52.803Z,3.90
2017-11-26T21:55:20.279Z,3.90
2017-11-26T21:57:48.179Z,3.90
2017-11-26T22:00:15.664Z,3.90
2017-11-26T22:02:43.613Z,3.90
2017-11-26T22:05:11.106Z,3.90
2017-11-26T22:07:38.937Z,4.00
2017-11-26T22:10:06.417Z,4.00
2017-11-26T22:12:34.306Z,4.00
2017-11-26T22:15:01.808Z,4.00
2017-11-26T22:17:29.308Z,4.00
2017-11-26T22:19:57.183Z,4.00
2017-11-26T22:22:24.744Z,4.00
2017-11-26T22:24:52.259Z,4.00
2017-11-26T22:27:19.848Z,4.00
2017-11-26T22:29:47.733Z,4.10
2017-11-26T22:32:15.372Z,4.10
2017-11-26T22:34:44.161Z,4.10
2017-11-26T22:37:13.560Z,4.20
2017-11-26T23:31:46.785Z,3.90
2017-11-26T23:34:15.321Z,3.90
2017-11-26T23:36:52.029Z,3.90
